Time;durP1;ratioP1;P1;durP2;ratioP2;P2;SDS_P1;SDS_P2;PMS_P1;PMS_P2;Temp;Humidity;BMP_temperature;BMP_pressure;BME280_temperature;BME280_humidity;BME280_pressure;Samples;Min_cycle;Max_cycle;Signal;HPM_P1;HPM_P2
2022/12/19 00:01:21;;;;;;;32.90;19.93;;;0.40;1.00;;;;;;5060482;28;20874;-66
2022/12/19 00:03:50;;;;;;;34.43;19.80;;;0.50;1.00;;;;;;5059956;28;20489;-66
2022/12/19 00:06:19;;;;;;;35.13;22.30;;;0.50;1.00;;;;;;5059086;28;20484;-66
2022/12/19 00:08:48;;;;;;;36.60;20.80;;;0.50;1.00;;;;;;5059929;28;20962;-64
2022/12/19 00:11:16;;;;;;;38.83;22.70;;;0.60;1.00;;;;;;5060025;28;20469;-65
2022/12/19 00:13:44;;;;;;;39.47;22.67;;;0.60;1.00;;;;;;5059612;28;20488;-66
2022/12/19 00:16:15;;;;;;;38.57;21.53;;;0.60;1.00;;;;;;5059686;28;20492;-64
2022/12/19 00:18:43;;;;;;;33.63;21.73;;;0.60;1.00;;;;;;5059943;28;20959;-64
2022/12/19 00:21:16;;;;;;;40.43;22.70;;;0.60;1.00;;;;;;5059417;28;20446;-62
2022/12/19 00:23:44;;;;;;;39.00;22.27;;;0.60;1.00;;;;;;5059339;28;20470;-60
2022/12/19 00:26:16;;;;;;;32.97;20.67;;;0.60;1.00;;;;;;5058924;28;20465;-64
2022/12/19 00:28:45;;;;;;;37.20;21.60;;;0.70;1.00;;;;;;5059852;28;20447;-64
2022/12/19 00:31:16;;;;;;;34.00;21.87;;;0.70;1.00;;;;;;5059491;28;20538;-66
2022/12/19 00:33:43;;;;;;;41.33;25.23;;;0.80;1.00;;;;;;5059288;28;20564;-66
2022/12/19 00:36:12;;;;;;;38.13;22.03;;;0.70;17.30;;;;;;5059550;28;20933;-66
2022/12/19 00:38:42;;;;;;;34.83;21.37;;;0.70;99.90;;;;;;5059454;28;20544;-65
2022/12/19 00:41:11;;;;;;;36.23;21.60;;;0.70;99.90;;;;;;5059885;28;20465;-66
2022/12/19 00:43:39;;;;;;;39.80;22.80;;;0.70;99.90;;;;;;5059314;28;20465;-67
2022/12/19 00:46:08;;;;;;;33.83;21.60;;;0.70;1.00;;;;;;5059250;28;20474;-67
2022/12/19 00:48:37;;;;;;;32.77;22.17;;;0.70;1.00;;;;;;5059429;28;20481;-68
2022/12/19 00:51:06;;;;;;;42.63;21.97;;;0.70;1.00;;;;;;5059397;28;20461;-68
2022/12/19 00:53:34;;;;;;;32.40;20.80;;;0.80;99.90;;;;;;5059425;28;20466;-68
2022/12/19 00:56:03;;;;;;;41.93;23.40;;;0.80;99.90;;;;;;5059178;28;20553;-68
2022/12/19 00:58:30;;;;;;;40.03;22.00;;;0.80;1.00;;;;;;5058896;28;20898;-67
2022/12/19 01:00:59;;;;;;;43.40;22.47;;;0.90;99.90;;;;;;5059328;28;20567;-67
2022/12/19 01:03:26;;;;;;;39.40;23.47;;;0.80;1.00;;;;;;5059527;28;20822;-67
2022/12/19 01:05:55;;;;;;;35.90;20.63;;;0.90;99.90;;;;;;5058449;28;20485;-67
2022/12/19 01:08:22;;;;;;;38.30;22.80;;;0.90;1.00;;;;;;5059232;28;20449;-67
2022/12/19 01:10:51;;;;;;;42.10;25.00;;;0.90;99.90;;;;;;5058997;28;20444;-68
2022/12/19 01:13:20;;;;;;;45.73;23.00;;;0.90;56.10;;;;;;5058976;28;20472;-67
2022/12/19 01:15:47;;;;;;;40.30;23.60;;;0.90;99.90;;;;;;5058661;28;20544;-67
2022/12/19 01:18:15;;;;;;;40.93;23.83;;;0.80;99.90;;;;;;5058406;28;20542;-67
2022/12/19 01:20:44;;;;;;;40.27;23.00;;;0.80;99.90;;;;;;5059042;28;20552;-67
2022/12/19 01:23:13;;;;;;;31.20;20.40;;;0.80;1.00;;;;;;5058669;28;20464;-67
2022/12/19 01:25:40;;;;;;;42.80;23.07;;;0.90;1.00;;;;;;5057503;28;20472;-67
2022/12/19 01:28:13;;;;;;;36.00;22.30;;;0.90;1.00;;;;;;5058608;28;20436;-67
2022/12/19 01:30:41;;;;;;;38.50;21.50;;;0.90;1.00;;;;;;5058814;28;20474;-66
2022/12/19 01:33:11;;;;;;;40.53;21.37;;;0.90;1.00;;;;;;5058470;28;20468;-68
2022/12/19 01:35:38;;;;;;;41.07;23.63;;;0.90;1.00;;;;;;5058709;28;20471;-66
2022/12/19 01:38:06;;;;;;;44.90;23.70;;;0.90;1.00;;;;;;5058577;28;20594;-67
2022/12/19 01:40:34;;;;;;;40.97;23.50;;;0.90;1.00;;;;;;5058531;28;20494;-66
2022/12/19 01:43:02;;;;;;;41.50;23.77;;;1.00;17.50;;;;;;5058551;28;20824;-66
2022/12/19 01:45:31;;;;;;;38.03;23.50;;;1.00;47.90;;;;;;5057884;28;20970;-66
2022/12/19 01:48:07;;;;;;;42.80;23.63;;;1.00;99.90;;;;;;5058124;28;20472;-66
2022/12/19 01:50:39;;;;;;;40.10;23.60;;;1.00;99.90;;;;;;5058114;28;20562;-68
2022/12/19 01:53:09;;;;;;;41.23;23.80;;;1.00;99.90;;;;;;5058669;28;21020;-66
2022/12/19 01:55:39;;;;;;;40.30;23.17;;;1.00;99.90;;;;;;5058565;28;20467;-69
2022/12/19 01:58:08;;;;;;;45.87;24.23;;;1.00;99.90;;;;;;5057978;28;20493;-69
2022/12/19 02:00:36;;;;;;;40.23;23.83;;;1.00;99.90;;;;;;5057445;28;20914;-67
2022/12/19 02:03:09;;;;;;;34.17;22.27;;;1.00;99.90;;;;;;5058053;28;20463;-66
2022/12/19 02:05:37;;;;;;;42.83;23.13;;;1.00;99.90;;;;;;5057697;28;20508;-66
2022/12/19 02:08:05;;;;;;;40.03;23.50;;;1.00;99.90;;;;;;5057850;28;20462;-67
2022/12/19 02:10:32;;;;;;;43.13;20.90;;;1.10;99.90;;;;;;5057529;28;20493;-66
2022/12/19 02:13:02;;;;;;;48.57;24.20;;;1.10;99.90;;;;;;5057817;28;20568;-66
2022/12/19 02:15:37;;;;;;;40.60;24.27;;;1.10;99.90;;;;;;5058021;28;20516;-67
2022/12/19 02:18:12;;;;;;;42.20;23.30;;;1.10;99.90;;;;;;5057251;28;20587;-67
2022/12/19 02:21:04;;;;;;;46.87;24.30;;;1.10;99.90;;;;;;5057785;28;20465;-67
2022/12/19 02:24:05;;;;;;;40.30;21.70;;;1.20;99.90;;;;;;5058023;28;20464;-66
2022/12/19 02:26:59;;;;;;;41.50;24.23;;;1.20;99.90;;;;;;5057699;28;20435;-65
2022/12/19 02:30:16;;;;;;;44.40;23.80;;;1.20;99.90;;;;;;5043343;28;20567;-67
2022/12/19 02:32:51;;;;;;;39.40;23.57;;;1.30;99.90;;;;;;5057270;28;20557;-67
2022/12/19 02:35:26;;;;;;;42.30;23.50;;;1.30;99.90;;;;;;5057580;28;20482;-66
2022/12/19 02:38:02;;;;;;;39.47;22.73;;;1.40;99.90;;;;;;5056975;28;20495;-67
2022/12/19 02:40:33;;;;;;;39.03;24.20;;;1.40;99.90;;;;;;5057434;28;20465;-67
2022/12/19 02:43:03;;;;;;;38.00;22.83;;;1.40;99.90;;;;;;5057772;28;20475;-66
2022/12/19 02:45:35;;;;;;;38.43;23.43;;;1.50;99.90;;;;;;5057688;28;20472;-66
2022/12/19 02:48:05;;;;;;;49.43;23.07;;;1.60;99.90;;;;;;5057236;28;20465;-66
2022/12/19 02:50:37;;;;;;;38.13;23.03;;;1.60;99.90;;;;;;5057311;28;20461;-66
2022/12/19 02:53:04;;;;;;;45.07;22.90;;;1.60;99.90;;;;;;5057291;28;20468;-66
2022/12/19 02:55:38;;;;;;;38.90;23.43;;;1.60;99.90;;;;;;5057355;28;20469;-66
2022/12/19 02:58:45;;;;;;;36.43;22.50;;;1.70;99.90;;;;;;5056977;28;20494;-66
2022/12/19 03:01:24;;;;;;;43.07;23.87;;;1.70;99.90;;;;;;5036302;28;20496;-66
2022/12/19 03:04:00;;;;;;;37.63;22.40;;;1.70;99.90;;;;;;5056962;28;20460;-66
2022/12/19 03:06:34;;;;;;;39.80;24.70;;;1.80;99.90;;;;;;5056864;28;20575;-66
2022/12/19 03:09:08;;;;;;;36.80;23.60;;;1.80;99.90;;;;;;5056436;28;20468;-67
2022/12/19 03:11:38;;;;;;;38.37;21.97;;;1.80;99.90;;;;;;5057283;28;20493;-67
2022/12/19 03:14:08;;;;;;;32.90;21.53;;;1.80;99.90;;;;;;5057017;28;20549;-67
2022/12/19 03:16:36;;;;;;;39.40;23.70;;;1.90;99.90;;;;;;5056685;28;20464;-68
2022/12/19 03:19:08;;;;;;;38.40;22.17;;;1.90;99.90;;;;;;5057112;28;20560;-68
2022/12/19 03:21:38;;;;;;;35.63;21.50;;;1.90;99.90;;;;;;5057212;28;20461;-67
2022/12/19 03:24:08;;;;;;;34.00;20.87;;;2.00;99.90;;;;;;5056849;28;20466;-67
2022/12/19 03:26:39;;;;;;;43.10;22.83;;;2.00;99.90;;;;;;5056717;28;20464;-68
2022/12/19 03:29:13;;;;;;;35.30;20.80;;;2.00;99.90;;;;;;5057211;28;20560;-68
2022/12/19 03:31:41;;;;;;;40.17;21.70;;;2.10;99.90;;;;;;5056336;28;20522;-66
2022/12/19 03:34:15;;;;;;;37.20;22.20;;;2.10;99.90;;;;;;5056554;28;20556;-68
2022/12/19 03:36:46;;;;;;;35.77;19.77;;;2.10;99.90;;;;;;5056886;28;20461;-68
2022/12/19 03:39:14;;;;;;;35.23;20.63;;;2.10;99.90;;;;;;5057255;28;20462;-66
2022/12/19 03:44:33;;;;;;;32.10;20.50;;;2.10;99.90;;;;;;5056491;28;20441;-65
2022/12/19 03:47:08;;;;;;;35.20;22.70;;;2.10;99.90;;;;;;5056320;28;20466;-66
2022/12/19 03:49:37;;;;;;;40.60;23.40;;;2.10;99.90;;;;;;5056211;28;20471;-66
2022/12/19 03:52:12;;;;;;;39.57;22.43;;;2.10;99.90;;;;;;5055620;28;20466;-67
2022/12/19 03:54:42;;;;;;;36.50;21.20;;;2.20;99.90;;;;;;5055427;28;20957;-67
2022/12/19 03:57:14;;;;;;;35.03;20.33;;;2.20;99.90;;;;;;5055813;28;20486;-67
2022/12/19 03:59:49;;;;;;;40.63;22.03;;;2.20;99.90;;;;;;5055328;28;20465;-67
2022/12/19 04:02:18;;;;;;;33.03;18.67;;;2.20;99.90;;;;;;5056532;28;20460;-67
2022/12/19 04:04:50;;;;;;;34.20;20.70;;;2.20;99.90;;;;;;5058462;28;20513;-61
2022/12/19 04:07:18;;;;;;;32.83;20.43;;;2.20;99.90;;;;;;5058106;28;20465;-68
2022/12/19 04:09:47;;;;;;;40.50;21.40;;;2.20;99.90;;;;;;5058436;28;20482;-67
2022/12/19 04:12:18;;;;;;;33.17;21.53;;;2.20;99.90;;;;;;5058188;28;20473;-67
2022/12/19 04:14:45;;;;;;;40.43;22.87;;;2.20;99.90;;;;;;5058485;28;20458;-67
2022/12/19 04:17:20;;;;;;;38.23;22.10;;;2.30;99.90;;;;;;5058765;28;21093;-67
2022/12/19 04:19:57;;;;;;;36.13;22.50;;;2.20;99.90;;;;;;5059125;28;20440;-67
2022/12/19 04:22:31;;;;;;;39.37;22.30;;;2.20;99.90;;;;;;5060115;28;20773;-67
2022/12/19 04:25:03;;;;;;;39.03;20.53;;;2.30;99.90;;;;;;5059899;28;20469;-68
2022/12/19 04:27:34;;;;;;;41.53;22.00;;;2.30;99.90;;;;;;5060251;28;20550;-64
2022/12/19 04:30:02;;;;;;;31.40;19.63;;;2.30;99.90;;;;;;5058853;28;20477;-66
2022/12/19 04:32:33;;;;;;;36.50;23.50;;;2.30;99.90;;;;;;5059441;28;20535;-67
2022/12/19 04:35:01;;;;;;;34.53;21.80;;;2.40;99.90;;;;;;5059889;28;20485;-64
2022/12/19 04:37:29;;;;;;;38.80;21.93;;;2.40;99.90;;;;;;5059634;28;20559;-66
2022/12/19 04:39:56;;;;;;;37.20;22.93;;;2.40;99.90;;;;;;5059770;28;20752;-66
2022/12/19 04:42:24;;;;;;;38.70;22.20;;;2.40;99.90;;;;;;5059684;28;20484;-67
2022/12/19 04:44:51;;;;;;;38.80;22.90;;;2.40;99.90;;;;;;5059407;28;20560;-66
2022/12/19 04:47:18;;;;;;;35.00;21.33;;;2.40;99.90;;;;;;5059740;28;20472;-67
2022/12/19 04:49:45;;;;;;;38.13;22.53;;;2.40;99.90;;;;;;5058756;28;20493;-64
2022/12/19 04:52:14;;;;;;;33.53;21.50;;;2.40;99.90;;;;;;5059537;28;20465;-66
2022/12/19 04:54:41;;;;;;;37.90;22.23;;;2.40;99.90;;;;;;5058866;28;20754;-66
2022/12/19 04:57:09;;;;;;;36.63;22.37;;;2.40;99.90;;;;;;5059271;28;20898;-65
2022/12/19 04:59:36;;;;;;;32.47;20.97;;;2.50;99.90;;;;;;5059274;28;20465;-66
2022/12/19 05:02:05;;;;;;;42.23;22.27;;;2.50;99.90;;;;;;5059332;28;20474;-65
2022/12/19 05:04:33;;;;;;;38.93;22.20;;;2.50;99.90;;;;;;5058668;28;20557;-64
2022/12/19 05:07:00;;;;;;;32.70;20.60;;;2.60;99.90;;;;;;5059319;28;20470;-65
2022/12/19 05:09:29;;;;;;;37.40;22.17;;;2.60;99.90;;;;;;5058522;28;20552;-66
2022/12/19 05:11:56;;;;;;;42.47;23.40;;;2.60;99.90;;;;;;5057360;28;20524;-66
2022/12/19 05:14:23;;;;;;;40.80;22.83;;;2.60;99.90;;;;;;5056695;28;20454;-65
2022/12/19 05:16:50;;;;;;;40.00;24.30;;;2.70;99.90;;;;;;5057391;28;20469;-66
2022/12/19 05:19:18;;;;;;;41.87;23.90;;;2.70;99.90;;;;;;5057484;28;20588;-66
2022/12/19 05:21:45;;;;;;;42.97;25.30;;;2.70;99.90;;;;;;5056708;28;20555;-63
2022/12/19 05:24:12;;;;;;;39.90;24.40;;;2.70;99.90;;;;;;5056919;28;20466;-65
2022/12/19 05:26:41;;;;;;;41.70;25.03;;;2.70;99.90;;;;;;5058124;28;20960;-65
2022/12/19 05:29:08;;;;;;;39.77;24.00;;;2.70;99.90;;;;;;5058182;28;20458;-64
2022/12/19 05:31:35;;;;;;;38.23;22.67;;;2.80;99.90;;;;;;5058019;28;20568;-66
2022/12/19 05:34:03;;;;;;;36.57;21.37;;;2.80;99.90;;;;;;5058307;28;20468;-65
2022/12/19 05:36:30;;;;;;;40.63;23.47;;;2.70;99.90;;;;;;5058656;28;20561;-65
2022/12/19 05:38:57;;;;;;;36.03;21.80;;;2.80;99.90;;;;;;5058219;28;20493;-65
2022/12/19 05:41:24;;;;;;;38.70;24.60;;;2.80;99.90;;;;;;5047679;28;20458;-65
2022/12/19 05:43:55;;;;;;;39.87;23.23;;;2.80;99.90;;;;;;5037568;28;20462;-65
2022/12/19 05:46:26;;;;;;;38.00;24.57;;;2.80;99.90;;;;;;5019689;28;20915;-64
2022/12/19 05:48:53;;;;;;;33.60;21.93;;;2.80;99.90;;;;;;5018251;28;20467;-65
2022/12/19 05:51:20;;;;;;;40.13;23.20;;;2.80;99.90;;;;;;5017339;28;20921;-65
2022/12/19 05:53:48;;;;;;;38.30;22.20;;;2.90;99.90;;;;;;5018105;28;20464;-62
2022/12/19 05:56:17;;;;;;;34.60;21.57;;;3.00;99.90;;;;;;5015570;28;20463;-65
2022/12/19 05:58:45;;;;;;;38.20;22.63;;;3.00;99.90;;;;;;5016449;28;20579;-65
2022/12/19 06:01:15;;;;;;;34.53;21.27;;;3.10;99.90;;;;;;5016699;28;20464;-64
2022/12/19 06:03:44;;;;;;;36.37;21.13;;;3.10;99.90;;;;;;5016271;28;20464;-64
2022/12/19 06:06:13;;;;;;;31.47;20.83;;;3.10;99.90;;;;;;5016108;28;20488;-64
2022/12/19 06:08:40;;;;;;;35.80;20.40;;;3.10;99.90;;;;;;5016457;28;20509;-65
2022/12/19 06:11:09;;;;;;;31.70;21.50;;;3.00;99.90;;;;;;5016272;28;21106;-65
2022/12/19 06:13:40;;;;;;;34.97;21.00;;;3.10;99.90;;;;;;5016129;28;20464;-62
2022/12/19 06:16:11;;;;;;;32.10;21.63;;;3.00;99.90;;;;;;5016325;28;20509;-64
2022/12/19 06:18:41;;;;;;;34.77;19.40;;;3.10;99.90;;;;;;5015911;28;20897;-64
2022/12/19 06:21:13;;;;;;;35.50;21.10;;;3.00;99.90;;;;;;5015499;28;20823;-63
2022/12/19 06:23:40;;;;;;;36.33;21.30;;;3.10;99.90;;;;;;5018491;28;20477;-63
2022/12/19 06:26:09;;;;;;;33.20;21.40;;;3.10;99.90;;;;;;5015120;28;20799;-63
2022/12/19 06:28:36;;;;;;;37.20;21.17;;;3.20;99.90;;;;;;5016652;28;20849;-63
2022/12/19 06:31:05;;;;;;;35.30;21.37;;;3.20;99.90;;;;;;5036689;28;20466;-63
2022/12/19 06:33:33;;;;;;;33.40;21.73;;;3.20;99.90;;;;;;5037751;28;20450;-63
2022/12/19 06:36:04;;;;;;;33.23;21.57;;;3.40;99.90;;;;;;5044898;28;20847;-66
2022/12/19 06:38:32;;;;;;;31.43;20.83;;;3.40;99.90;;;;;;5017667;28;20996;-65
2022/12/19 06:43:44;;;;;;;35.47;21.60;;;3.50;99.90;;;;;;5016922;28;20513;-65
2022/12/19 06:46:11;;;;;;;37.70;22.07;;;3.50;99.90;;;;;;5017087;28;20471;-65
2022/12/19 06:48:39;;;;;;;32.10;20.43;;;3.50;99.90;;;;;;5017141;28;20514;-66
2022/12/19 06:51:08;;;;;;;39.07;20.80;;;3.50;99.90;;;;;;5017594;28;20768;-66
2022/12/19 06:53:35;;;;;;;34.07;21.10;;;3.50;99.90;;;;;;5017572;28;20498;-65
2022/12/19 06:56:03;;;;;;;37.13;20.50;;;3.60;99.90;;;;;;5017031;28;20516;-65
2022/12/19 06:58:30;;;;;;;34.40;22.97;;;3.70;99.90;;;;;;5017455;28;21101;-65
2022/12/19 07:01:01;;;;;;;32.47;21.13;;;3.80;99.90;;;;;;5021983;28;20557;-64
2022/12/19 07:03:35;;;;;;;32.70;20.93;;;3.80;99.90;;;;;;5037616;28;20459;-63
2022/12/19 07:06:02;;;;;;;37.90;22.60;;;3.80;99.90;;;;;;5036798;28;20490;-63
2022/12/19 07:08:31;;;;;;;32.53;20.70;;;3.80;99.90;;;;;;5037265;28;20874;-63
2022/12/19 07:10:59;;;;;;;35.87;22.10;;;3.80;99.90;;;;;;5036662;28;20470;-64
2022/12/19 07:13:27;;;;;;;35.23;22.40;;;3.80;99.90;;;;;;5037077;28;20934;-64
2022/12/19 07:15:59;;;;;;;36.17;21.80;;;3.90;99.90;;;;;;5036810;28;20899;-64
2022/12/19 07:18:27;;;;;;;37.50;22.17;;;4.00;99.90;;;;;;5037126;28;20585;-64
2022/12/19 07:20:54;;;;;;;35.30;21.60;;;4.00;99.90;;;;;;5037177;28;20437;-63
2022/12/19 07:23:22;;;;;;;31.73;20.83;;;4.00;99.90;;;;;;5036518;28;20481;-63
2022/12/19 07:25:51;;;;;;;33.53;20.13;;;4.00;99.90;;;;;;5036755;28;20876;-64
2022/12/19 07:28:18;;;;;;;34.37;21.77;;;4.00;99.90;;;;;;5037444;28;20470;-65
2022/12/19 07:30:45;;;;;;;31.83;21.30;;;4.10;99.90;;;;;;5036630;28;20463;-65
2022/12/19 07:33:12;;;;;;;31.70;21.27;;;4.10;99.90;;;;;;5036824;28;20498;-64
2022/12/19 07:35:40;;;;;;;37.40;21.90;;;4.10;99.90;;;;;;5024659;28;20944;-64
2022/12/19 07:38:08;;;;;;;33.40;21.50;;;4.10;99.90;;;;;;5038943;28;20466;-65
2022/12/19 07:40:35;;;;;;;28.93;19.67;;;4.20;99.90;;;;;;5040560;28;20466;-65
2022/12/19 07:43:06;;;;;;;29.07;19.43;;;4.20;99.90;;;;;;5040597;28;20493;-65
2022/12/19 07:45:36;;;;;;;35.90;21.40;;;4.30;99.90;;;;;;5040143;28;20459;-65
2022/12/19 07:48:04;;;;;;;30.90;20.10;;;4.20;99.90;;;;;;5039931;28;20556;-65
2022/12/19 07:50:32;;;;;;;33.17;20.83;;;4.20;99.90;;;;;;5040261;28;20467;-63
2022/12/19 07:52:59;;;;;;;32.70;21.30;;;4.30;99.90;;;;;;5040066;28;20803;-65
2022/12/19 07:55:27;;;;;;;36.17;21.63;;;4.30;99.90;;;;;;5039933;28;20510;-65
2022/12/19 07:57:55;;;;;;;39.00;23.30;;;4.20;99.90;;;;;;5039964;28;20469;-65
2022/12/19 08:00:24;;;;;;;35.00;21.87;;;4.30;99.90;;;;;;5038991;28;20459;-65
2022/12/19 08:02:51;;;;;;;29.40;20.57;;;4.30;99.90;;;;;;5038512;28;20851;-66
2022/12/19 08:05:18;;;;;;;32.20;22.00;;;4.30;99.90;;;;;;5037863;28;20764;-65
2022/12/19 08:07:45;;;;;;;31.63;21.30;;;4.30;99.90;;;;;;5038153;28;20922;-64
2022/12/19 08:10:13;;;;;;;30.53;21.57;;;4.30;99.90;;;;;;5038204;28;20513;-65
2022/12/19 08:12:41;;;;;;;33.00;21.70;;;4.30;99.90;;;;;;5037995;28;20475;-65
2022/12/19 08:15:09;;;;;;;30.77;20.63;;;4.30;99.90;;;;;;5027687;28;20468;-65
2022/12/19 08:17:38;;;;;;;32.20;22.20;;;4.30;99.90;;;;;;5033855;28;20463;-65
2022/12/19 08:20:08;;;;;;;30.23;20.30;;;4.30;99.90;;;;;;5039179;28;20517;-65
2022/12/19 08:22:35;;;;;;;36.30;22.57;;;4.30;99.90;;;;;;5039741;28;20463;-65
2022/12/19 08:25:02;;;;;;;33.00;20.70;;;4.30;99.90;;;;;;5039474;28;20474;-65
2022/12/19 08:27:29;;;;;;;35.40;21.57;;;4.40;99.90;;;;;;5039827;28;20471;-64
2022/12/19 08:29:56;;;;;;;30.87;21.30;;;4.40;99.90;;;;;;5039335;28;20463;-66
2022/12/19 08:32:23;;;;;;;32.67;20.97;;;4.40;99.90;;;;;;5038903;28;20525;-65
2022/12/19 08:34:53;;;;;;;27.67;18.50;;;4.50;99.90;;;;;;5038916;28;20554;-64
2022/12/19 08:37:20;;;;;;;28.37;19.83;;;4.50;99.90;;;;;;5036658;28;20467;-65
2022/12/19 08:39:47;;;;;;;28.17;19.87;;;4.50;99.90;;;;;;5033540;28;20491;-65
2022/12/19 08:42:15;;;;;;;28.70;20.63;;;4.60;99.90;;;;;;5038938;28;20462;-63
2022/12/19 08:44:42;;;;;;;38.70;22.20;;;4.60;99.90;;;;;;5038951;28;20467;-63
2022/12/19 08:47:09;;;;;;;29.07;19.10;;;4.70;99.90;;;;;;5038667;28;20437;-65
2022/12/19 08:49:37;;;;;;;28.37;21.20;;;4.70;99.90;;;;;;5037993;28;20461;-64
2022/12/19 08:52:05;;;;;;;33.87;19.40;;;4.70;99.90;;;;;;5037724;28;20489;-65
2022/12/19 08:54:32;;;;;;;29.53;20.20;;;4.80;99.90;;;;;;5037052;28;20474;-65
2022/12/19 08:57:00;;;;;;;28.50;20.80;;;4.80;99.90;;;;;;5037448;28;20495;-64
2022/12/19 08:59:27;;;;;;;35.07;20.17;;;4.90;99.90;;;;;;5036412;28;20585;-63
2022/12/19 09:01:54;;;;;;;28.87;19.00;;;4.90;99.90;;;;;;5036700;28;20463;-64
2022/12/19 09:04:22;;;;;;;31.67;20.70;;;5.00;99.90;;;;;;5036446;28;20494;-64
2022/12/19 09:06:49;;;;;;;29.93;20.90;;;5.00;99.90;;;;;;5036747;28;20885;-65
2022/12/19 09:09:18;;;;;;;28.97;17.47;;;5.00;99.90;;;;;;5036863;28;20477;-63
2022/12/19 09:11:45;;;;;;;24.80;18.60;;;5.10;99.90;;;;;;5037489;28;20779;-64
2022/12/19 09:14:12;;;;;;;27.57;18.47;;;5.10;99.90;;;;;;5038400;28;20485;-65
2022/12/19 09:16:39;;;;;;;29.97;18.87;;;5.10;99.90;;;;;;5038222;28;20463;-64
2022/12/19 09:19:06;;;;;;;26.20;18.73;;;5.20;99.90;;;;;;5038803;28;20491;-66
2022/12/19 09:21:34;;;;;;;30.03;17.87;;;5.20;99.90;;;;;;5038843;28;20554;-66
2022/12/19 09:24:01;;;;;;;27.90;17.47;;;5.30;99.90;;;;;;5038560;28;20469;-66
2022/12/19 09:26:30;;;;;;;24.13;15.23;;;5.30;99.90;;;;;;5038158;28;20463;-65
2022/12/19 09:28:58;;;;;;;27.37;18.93;;;5.40;99.90;;;;;;5037925;28;20463;-64
2022/12/19 09:31:26;;;;;;;23.77;16.47;;;5.40;99.90;;;;;;5037800;28;20463;-64
2022/12/19 09:33:53;;;;;;;21.40;17.00;;;5.50;99.90;;;;;;5037912;28;20473;-65
2022/12/19 09:36:24;;;;;;;28.20;16.93;;;5.60;99.90;;;;;;5038216;28;20467;-65
2022/12/19 09:38:53;;;;;;;26.37;17.47;;;5.60;99.90;;;;;;5038267;28;20564;-64
2022/12/19 09:42:00;;;;;;;23.70;16.23;;;5.60;99.90;;;;;;5037884;28;20466;-65
2022/12/19 09:44:41;;;;;;;26.40;16.53;;;5.70;99.90;;;;;;5038035;28;20521;-63
2022/12/19 09:47:14;;;;;;;26.40;16.30;;;5.70;99.90;;;;;;5037819;28;20536;-64
2022/12/19 09:49:43;;;;;;;25.43;15.60;;;5.80;99.90;;;;;;5037945;28;20755;-64
2022/12/19 09:52:15;;;;;;;23.53;16.80;;;5.80;99.90;;;;;;5037770;28;20464;-64
2022/12/19 09:54:46;;;;;;;22.47;15.63;;;5.90;99.90;;;;;;5037472;28;20492;-64
2022/12/19 09:57:19;;;;;;;25.33;17.03;;;5.80;99.90;;;;;;5031284;28;20890;-63
2022/12/19 09:59:51;;;;;;;22.80;16.47;;;5.80;99.90;;;;;;5036096;28;20492;-64
2022/12/19 10:02:30;;;;;;;20.83;15.50;;;5.80;99.90;;;;;;5037494;28;20471;-64
2022/12/19 10:05:07;;;;;;;22.00;16.40;;;5.80;99.90;;;;;;5036898;28;20482;-64
2022/12/19 10:07:34;;;;;;;23.50;15.47;;;5.80;99.90;;;;;;5037085;28;20470;-64
2022/12/19 10:10:01;;;;;;;26.63;16.93;;;5.90;99.90;;;;;;5037360;28;20463;-64
2022/12/19 10:13:03;;;;;;;24.40;16.63;;;6.00;99.90;;;;;;5037633;28;20463;-64
2022/12/19 10:15:43;;;;;;;22.60;15.30;;;5.90;99.90;;;;;;5030715;28;20557;-64
2022/12/19 10:18:27;;;;;;;21.53;16.10;;;6.00;99.90;;;;;;5037396;28;20553;-64
2022/12/19 10:21:02;;;;;;;22.10;16.50;;;6.00;99.90;;;;;;5036932;28;20772;-64
2022/12/19 10:23:52;;;;;;;21.80;15.33;;;6.00;99.90;;;;;;5037550;28;20474;-64
2022/12/19 10:26:21;;;;;;;23.53;15.93;;;6.00;99.90;;;;;;5036881;28;20462;-62
2022/12/19 10:29:05;;;;;;;21.93;15.17;;;6.10;99.90;;;;;;5037414;28;20472;-62
2022/12/19 10:31:38;;;;;;;23.90;16.83;;;6.30;99.90;;;;;;5037349;28;20773;-61
2022/12/19 10:34:16;;;;;;;22.37;14.90;;;6.30;99.90;;;;;;5037261;28;20922;-62
2022/12/19 10:36:45;;;;;;;24.67;16.33;;;6.40;99.90;;;;;;5037215;28;20469;-62
2022/12/19 10:39:20;;;;;;;21.30;15.43;;;6.30;99.90;;;;;;5037002;28;20504;-62
2022/12/19 10:41:55;;;;;;;21.23;15.83;;;6.30;99.90;;;;;;5036620;28;20462;-62
2022/12/19 10:44:27;;;;;;;21.73;16.30;;;6.30;99.90;;;;;;5037178;28;20470;-63
2022/12/19 10:46:54;;;;;;;24.57;15.30;;;6.20;99.90;;;;;;5036852;28;20463;-63
2022/12/19 10:49:22;;;;;;;25.93;17.07;;;6.10;99.90;;;;;;5036803;28;20466;-62
2022/12/19 10:51:57;;;;;;;24.97;16.43;;;6.10;99.90;;;;;;5036768;28;20759;-62
2022/12/19 10:54:26;;;;;;;25.13;18.23;;;6.10;99.90;;;;;;5036552;28;20463;-62
2022/12/19 10:56:53;;;;;;;22.30;16.13;;;6.00;99.90;;;;;;5036704;28;20463;-62
2022/12/19 10:59:23;;;;;;;23.60;15.83;;;6.00;99.90;;;;;;5036981;28;20495;-62
2022/12/19 11:01:50;;;;;;;26.50;18.30;;;5.90;99.90;;;;;;5036608;28;20537;-61
2022/12/19 11:04:29;;;;;;;26.90;18.57;;;6.00;99.90;;;;;;5036388;28;20553;-62
2022/12/19 11:07:17;;;;;;;23.67;14.90;;;5.90;99.90;;;;;;5036633;28;20553;-61
2022/12/19 11:09:44;;;;;;;25.63;17.77;;;5.80;99.90;;;;;;5036534;28;20752;-60
2022/12/19 11:12:14;;;;;;;27.20;17.63;;;5.80;99.90;;;;;;5040076;28;20772;-62
2022/12/19 11:14:49;;;;;;;24.70;16.63;;;5.80;99.90;;;;;;5038534;28;20471;-61
2022/12/19 11:17:36;;;;;;;24.17;16.77;;;5.80;99.90;;;;;;5040654;28;20467;-61
2022/12/19 11:20:12;;;;;;;25.80;17.60;;;5.80;99.90;;;;;;5040703;28;20465;-61
2022/12/19 11:22:40;;;;;;;26.50;17.00;;;5.80;99.90;;;;;;5040530;28;20462;-61
2022/12/19 11:25:15;;;;;;;25.83;16.53;;;5.90;99.90;;;;;;5040577;28;20465;-61
2022/12/19 11:27:45;;;;;;;21.43;17.20;;;5.90;99.90;;;;;;5040062;28;20469;-61
2022/12/19 11:30:22;;;;;;;24.40;16.27;;;5.90;99.90;;;;;;5039377;28;20657;-62
2022/12/19 11:33:07;;;;;;;22.80;16.63;;;6.00;99.90;;;;;;5040514;28;20475;-61
2022/12/19 11:35:47;;;;;;;26.33;17.13;;;6.00;99.90;;;;;;5040406;28;20460;-61
2022/12/19 11:38:18;;;;;;;26.67;17.27;;;6.00;99.90;;;;;;5040500;28;20733;-59
2022/12/19 11:40:48;;;;;;;22.47;16.53;;;6.00;99.90;;;;;;5039906;28;20469;-61
2022/12/19 11:43:22;;;;;;;22.60;17.03;;;6.10;99.90;;;;;;5040390;28;20918;-60
2022/12/19 11:45:57;;;;;;;21.70;16.20;;;6.10;99.90;;;;;;5039817;28;20770;-61
2022/12/19 11:48:40;;;;;;;23.10;15.63;;;6.10;99.90;;;;;;5040102;28;20524;-60
2022/12/19 11:51:17;;;;;;;23.97;16.90;;;6.20;99.90;;;;;;5036420;28;20447;-61
2022/12/19 11:53:52;;;;;;;22.37;16.87;;;6.10;99.90;;;;;;5018536;28;20459;-60
2022/12/19 11:56:23;;;;;;;25.40;16.87;;;6.20;99.90;;;;;;5019969;28;20461;-60
2022/12/19 11:58:54;;;;;;;23.23;15.20;;;6.20;99.90;;;;;;5030770;28;20886;-61
2022/12/19 12:01:37;;;;;;;23.37;16.43;;;6.20;99.90;;;;;;5038195;28;20577;-61
2022/12/19 12:04:22;;;;;;;22.03;16.37;;;6.20;99.90;;;;;;5038069;28;20469;-61
2022/12/19 12:06:53;;;;;;;17.70;14.20;;;6.30;99.90;;;;;;5018327;28;20458;-61
2022/12/19 12:09:31;;;;;;;22.20;16.03;;;6.20;99.90;;;;;;5018349;28;20460;-60
2022/12/19 12:12:06;;;;;;;20.60;14.90;;;6.20;99.90;;;;;;5018164;28;20836;-60
2022/12/19 12:14:43;;;;;;;25.23;16.83;;;6.30;99.90;;;;;;5010721;28;20560;-60
2022/12/19 12:17:41;;;;;;;21.20;15.40;;;6.40;99.90;;;;;;5013540;28;20508;-60
2022/12/19 12:20:21;;;;;;;21.97;15.47;;;6.40;99.90;;;;;;5019386;28;21107;-61
2022/12/19 12:23:10;;;;;;;19.83;14.37;;;6.40;99.90;;;;;;5018929;28;20471;-60
2022/12/19 12:25:50;;;;;;;24.77;16.93;;;6.40;99.90;;;;;;5019266;28;20435;-60
2022/12/19 12:28:52;;;;;;;23.60;15.17;;;6.40;99.90;;;;;;5019584;28;20470;-61
2022/12/19 12:31:42;;;;;;;27.23;16.30;;;6.40;99.90;;;;;;4972067;28;20921;-59
2022/12/19 12:34:33;;;;;;;24.67;16.60;;;6.50;99.90;;;;;;5019398;28;20551;-61
2022/12/19 12:37:10;;;;;;;19.07;13.87;;;6.60;99.90;;;;;;5019714;28;20460;-60
2022/12/19 12:39:46;;;;;;;21.53;13.90;;;6.60;99.90;;;;;;5019297;28;20494;-61
2022/12/19 12:42:28;;;;;;;21.90;15.43;;;6.60;99.90;;;;;;5019013;28;20529;-61
2022/12/19 12:44:59;;;;;;;19.13;14.67;;;6.60;99.90;;;;;;5012135;28;20486;-61
2022/12/19 12:47:27;;;;;;;20.67;14.70;;;6.70;99.90;;;;;;5017225;28;20517;-60
2022/12/19 12:50:00;;;;;;;20.40;15.17;;;6.70;99.90;;;;;;5018665;28;20430;-60
2022/12/19 12:52:33;;;;;;;19.00;14.10;;;6.70;99.90;;;;;;5018186;28;20460;-61
2022/12/19 12:55:01;;;;;;;21.70;12.93;;;6.70;99.90;;;;;;5018119;28;20460;-61
2022/12/19 12:57:37;;;;;;;23.97;15.07;;;6.70;99.90;;;;;;5018627;28;20830;-60
2022/12/19 13:00:22;;;;;;;19.57;13.87;;;6.70;99.90;;;;;;5017874;28;20924;-61
2022/12/19 13:02:54;;;;;;;18.17;12.90;;;6.70;99.90;;;;;;5018496;28;20558;-61
2022/12/19 13:05:50;;;;;;;24.07;14.10;;;6.70;99.90;;;;;;5027885;28;20812;-61